Time;durP1;ratioP1;P1;durP2;ratioP2;P2;SDS_P1;SDS_P2;PMS_P1;PMS_P2;Temp;Humidity;BMP_temperature;BMP_pressure;BME280_temperature;BME280_humidity;BME280_pressure;Samples;Min_cycle;Max_cycle;Signal;HPM_P1;HPM_P2
2022/10/01 00:01:17;;;;;;;10.45;8.90;;;11.70;99.90;;;;;;5038110;28;20052;-80
2022/10/01 00:03:44;;;;;;;10.30;8.48;;;11.70;99.90;;;;;;5018551;28;20064;-77
2022/10/01 00:06:21;;;;;;;10.43;7.78;;;11.60;99.90;;;;;;5007307;28;20049;-77
2022/10/01 00:08:48;;;;;;;10.13;8.60;;;11.60;99.90;;;;;;5014300;28;20106;-74
2022/10/01 00:11:20;;;;;;;12.10;9.27;;;11.50;99.90;;;;;;5034453;28;20082;-75
2022/10/01 00:13:46;;;;;;;11.27;9.65;;;11.50;99.90;;;;;;5033287;28;20056;-74
2022/10/01 00:16:32;;;;;;;11.88;9.60;;;11.50;99.90;;;;;;5032056;28;20061;-75
2022/10/01 00:18:59;;;;;;;11.48;9.48;;;11.40;99.90;;;;;;5044601;28;20390;-77
2022/10/01 00:21:30;;;;;;;10.77;9.00;;;11.40;99.90;;;;;;5004357;28;20091;-75
2022/10/01 00:23:59;;;;;;;13.07;10.20;;;11.30;99.90;;;;;;5017458;28;20088;-76
2022/10/01 00:26:27;;;;;;;11.00;8.88;;;11.30;99.90;;;;;;5012272;28;20908;-76
2022/10/01 00:28:56;;;;;;;13.05;10.10;;;11.30;99.90;;;;;;5040412;28;20057;-72
2022/10/01 00:31:23;;;;;;;12.80;9.90;;;11.30;99.90;;;;;;5045527;28;20523;-77
2022/10/01 00:33:54;;;;;;;13.75;10.05;;;11.20;99.90;;;;;;5028856;28;20071;-72
2022/10/01 00:36:20;;;;;;;13.38;10.57;;;11.30;99.90;;;;;;5050632;28;20048;-73
2022/10/01 00:38:47;;;;;;;12.68;10.18;;;11.30;99.90;;;;;;5033155;28;20053;-74
2022/10/01 00:41:13;;;;;;;12.88;10.55;;;11.30;99.90;;;;;;5050144;28;20041;-76
2022/10/01 00:43:49;;;;;;;15.48;12.02;;;11.20;99.90;;;;;;5033055;28;20037;-73
2022/10/01 00:46:21;;;;;;;12.63;10.23;;;11.20;99.90;;;;;;5045403;28;20068;-73
2022/10/01 00:48:57;;;;;;;12.43;10.30;;;11.20;99.90;;;;;;5033446;28;20385;-75
2022/10/01 00:51:28;;;;;;;13.48;10.50;;;11.30;99.90;;;;;;5036391;28;20492;-72
2022/10/01 00:54:01;;;;;;;12.20;9.52;;;11.20;99.90;;;;;;5051424;28;20045;-73
2022/10/01 00:56:27;;;;;;;12.93;10.85;;;11.20;99.90;;;;;;5050190;28;20071;-73
2022/10/01 00:58:54;;;;;;;13.15;10.30;;;11.30;99.90;;;;;;5026836;28;20366;-75
2022/10/01 01:01:23;;;;;;;12.77;9.93;;;11.20;99.90;;;;;;5030147;28;20045;-70
2022/10/01 01:03:49;;;;;;;12.45;10.63;;;11.30;99.90;;;;;;5029349;28;20060;-76
2022/10/01 01:06:15;;;;;;;13.20;10.90;;;11.30;99.90;;;;;;5033034;28;20496;-76
2022/10/01 01:08:41;;;;;;;13.38;10.98;;;11.20;99.90;;;;;;5050007;28;20049;-73
2022/10/01 01:11:42;;;;;;;14.15;11.95;;;11.20;99.90;;;;;;5000457;28;20410;-76
2022/10/01 01:14:08;;;;;;;14.35;10.88;;;11.20;99.90;;;;;;5029754;28;20045;-76
2022/10/01 01:17:07;;;;;;;15.33;10.97;;;11.20;99.90;;;;;;5011029;28;1104861;-71
2022/10/01 01:20:07;;;;;;;12.65;10.65;;;11.20;99.90;;;;;;5030386;28;20057;-73
2022/10/01 01:22:36;;;;;;;14.30;11.30;;;11.20;99.90;;;;;;5050907;28;20040;-71
2022/10/01 01:25:17;;;;;;;15.30;12.23;;;11.30;99.90;;;;;;5051359;28;20144;-71
2022/10/01 01:27:58;;;;;;;13.30;11.65;;;11.20;99.90;;;;;;5032829;28;20053;-74
2022/10/01 01:30:25;;;;;;;14.27;11.75;;;11.20;99.90;;;;;;5050701;28;20079;-72
2022/10/01 01:32:54;;;;;;;12.60;11.13;;;11.10;99.90;;;;;;5030703;28;20059;-71
2022/10/01 01:35:26;;;;;;;13.70;11.50;;;11.20;99.90;;;;;;5045564;28;20049;-71
2022/10/01 01:37:59;;;;;;;14.85;11.85;;;11.20;99.90;;;;;;5033405;28;20052;-73
2022/10/01 01:40:27;;;;;;;14.63;11.77;;;11.10;99.90;;;;;;5033106;28;20056;-75
2022/10/01 01:42:55;;;;;;;14.10;11.77;;;11.10;99.90;;;;;;5030559;28;20043;-74
2022/10/01 01:45:27;;;;;;;14.57;12.13;;;11.10;99.90;;;;;;5029881;28;20045;-70
2022/10/01 01:47:56;;;;;;;13.70;11.82;;;11.10;99.90;;;;;;5032139;28;20041;-72
2022/10/01 01:50:25;;;;;;;14.95;12.18;;;11.00;99.90;;;;;;5033460;28;20127;-71
2022/10/01 01:52:55;;;;;;;13.32;11.77;;;11.00;99.90;;;;;;5016280;28;20040;-71
2022/10/01 01:55:25;;;;;;;12.05;10.55;;;11.00;99.90;;;;;;5031670;28;20049;-75
2022/10/01 01:57:52;;;;;;;14.48;12.18;;;11.10;99.90;;;;;;5013643;28;20037;-73
2022/10/01 02:00:17;;;;;;;15.10;12.98;;;11.10;99.90;;;;;;5000283;28;20045;-76
2022/10/01 02:02:48;;;;;;;14.45;12.15;;;11.10;99.90;;;;;;5030990;28;20048;-78
2022/10/01 02:05:20;;;;;;;15.43;12.70;;;11.00;99.90;;;;;;5033078;28;20379;-74
2022/10/01 02:07:58;;;;;;;16.45;11.15;;;11.00;99.90;;;;;;5031822;28;20384;-72
2022/10/01 02:10:39;;;;;;;15.07;11.13;;;11.00;99.90;;;;;;5032666;28;20072;-74
2022/10/01 02:13:46;;;;;;;14.43;11.77;;;11.10;99.90;;;;;;5032086;28;20091;-71
2022/10/01 02:16:17;;;;;;;14.57;12.13;;;11.00;99.90;;;;;;5021422;28;20306;-73
2022/10/01 02:18:55;;;;;;;12.23;10.90;;;11.00;99.90;;;;;;5029440;28;20053;-72
2022/10/01 02:21:38;;;;;;;15.25;12.20;;;11.10;99.90;;;;;;5032564;28;20045;-74
2022/10/01 02:24:18;;;;;;;16.95;14.20;;;11.10;99.90;;;;;;5031998;28;20083;-74
2022/10/01 02:26:47;;;;;;;15.77;13.85;;;11.00;99.90;;;;;;5030238;28;20072;-74
2022/10/01 02:29:18;;;;;;;15.13;13.23;;;11.00;99.90;;;;;;5049936;28;20048;-72
2022/10/01 02:31:46;;;;;;;14.13;12.40;;;10.90;99.90;;;;;;5015066;28;20135;-74
2022/10/01 02:34:14;;;;;;;13.75;11.48;;;10.90;99.90;;;;;;5029486;28;20051;-75
2022/10/01 02:36:44;;;;;;;15.95;13.13;;;10.90;99.90;;;;;;5013582;28;20041;-72
2022/10/01 02:39:12;;;;;;;15.45;12.45;;;11.00;99.90;;;;;;5030165;28;20055;-72
2022/10/01 02:41:40;;;;;;;10.50;7.65;;;11.00;99.90;;;;;;5028385;28;20133;-73
2022/10/01 02:44:13;;;;;;;15.45;12.75;;;11.10;99.90;;;;;;5032357;28;20056;-76
2022/10/01 02:46:47;;;;;;;13.15;11.13;;;11.00;99.90;;;;;;5011209;28;20052;-74
2022/10/01 02:49:13;;;;;;;15.13;12.80;;;11.00;99.90;;;;;;5031453;28;20622;-78
2022/10/01 02:51:53;;;;;;;15.07;12.98;;;10.90;99.90;;;;;;5032063;28;20110;-78
2022/10/01 02:54:26;;;;;;;14.57;12.52;;;10.90;99.90;;;;;;5029239;28;20052;-78
2022/10/01 02:59:36;;;;;;;16.80;11.65;;;10.90;99.90;;;;;;5047452;28;20041;-77
2022/10/01 03:02:02;;;;;;;14.68;12.32;;;10.90;99.90;;;;;;5020060;28;20046;-77
2022/10/01 03:04:28;;;;;;;12.95;11.10;;;10.90;99.90;;;;;;5032104;28;20051;-76
2022/10/01 03:06:54;;;;;;;13.98;11.98;;;11.00;99.90;;;;;;5031485;28;20041;-74
2022/10/01 03:09:19;;;;;;;11.88;9.85;;;11.00;99.90;;;;;;5048885;28;20052;-78
2022/10/01 03:11:46;;;;;;;11.63;9.52;;;11.00;99.90;;;;;;5046240;28;20077;-77
2022/10/01 03:14:11;;;;;;;11.02;9.77;;;11.00;99.90;;;;;;5032155;28;20060;-75
2022/10/01 03:16:37;;;;;;;11.73;9.68;;;11.00;99.90;;;;;;5019644;28;20053;-75
2022/10/01 03:19:03;;;;;;;10.75;8.98;;;11.00;99.90;;;;;;5027074;28;21533;-76
2022/10/01 03:21:28;;;;;;;11.65;8.93;;;11.10;99.90;;;;;;5027981;28;20493;-72
2022/10/01 03:23:54;;;;;;;9.70;8.40;;;11.10;99.90;;;;;;5029400;28;20046;-74
2022/10/01 03:26:20;;;;;;;10.63;8.95;;;11.10;99.90;;;;;;5028375;28;20041;-71
2022/10/01 03:28:45;;;;;;;10.80;9.30;;;11.10;99.90;;;;;;5028689;28;20047;-74
2022/10/01 03:31:11;;;;;;;11.40;8.43;;;11.10;99.90;;;;;;4995334;28;20054;-74
2022/10/01 03:33:37;;;;;;;10.20;8.23;;;11.10;99.90;;;;;;5026991;28;20041;-75
2022/10/01 03:36:03;;;;;;;11.15;9.38;;;11.10;99.90;;;;;;5026133;28;20041;-78
2022/10/01 03:38:29;;;;;;;9.23;7.57;;;11.10;99.90;;;;;;5029084;28;20041;-75
2022/10/01 03:40:55;;;;;;;11.50;9.20;;;11.10;99.90;;;;;;5011471;28;20052;-72
2022/10/01 03:43:21;;;;;;;9.20;7.78;;;11.10;99.90;;;;;;5011282;28;20095;-74
2022/10/01 03:45:47;;;;;;;9.20;7.75;;;11.10;99.90;;;;;;5017131;28;20076;-76
2022/10/01 03:48:13;;;;;;;9.25;7.28;;;11.10;99.90;;;;;;5028683;28;20121;-74
2022/10/01 03:50:38;;;;;;;9.13;7.47;;;11.10;99.90;;;;;;5025288;28;20516;-74
2022/10/01 03:53:05;;;;;;;8.57;7.15;;;11.10;99.90;;;;;;5019719;28;20038;-72
2022/10/01 03:55:31;;;;;;;8.70;6.78;;;11.10;99.90;;;;;;5020286;28;20549;-74
2022/10/01 03:57:57;;;;;;;9.35;7.50;;;11.10;99.90;;;;;;5025318;28;20049;-75
2022/10/01 04:00:24;;;;;;;8.50;6.65;;;11.10;99.90;;;;;;5017305;28;20136;-74
2022/10/01 04:02:50;;;;;;;8.30;6.00;;;11.10;99.90;;;;;;5018774;28;20096;-75
2022/10/01 04:05:16;;;;;;;8.85;6.60;;;11.10;99.90;;;;;;5025362;28;20081;-74
2022/10/01 04:07:42;;;;;;;9.82;6.88;;;11.10;99.90;;;;;;5030771;28;20060;-75
2022/10/01 04:10:08;;;;;;;9.13;6.43;;;11.10;99.90;;;;;;5029248;28;20041;-76
2022/10/01 04:12:34;;;;;;;8.48;6.47;;;11.00;99.90;;;;;;5023457;28;20042;-72
2022/10/01 04:14:59;;;;;;;8.18;6.20;;;11.10;99.90;;;;;;5028929;28;20048;-75
2022/10/01 04:17:25;;;;;;;7.28;5.80;;;11.10;99.90;;;;;;4998782;28;20050;-74
2022/10/01 04:19:51;;;;;;;7.90;5.90;;;11.10;99.90;;;;;;5009469;28;20057;-72
2022/10/01 04:22:17;;;;;;;7.85;5.97;;;11.10;99.90;;;;;;5008047;28;20373;-75
2022/10/01 04:24:43;;;;;;;7.50;5.65;;;11.10;99.90;;;;;;5004480;28;20129;-77
2022/10/01 04:27:08;;;;;;;8.23;6.10;;;11.10;99.90;;;;;;5008987;28;20101;-77
2022/10/01 04:29:34;;;;;;;8.38;5.85;;;11.10;99.90;;;;;;5003887;28;20105;-73
2022/10/01 04:32:02;;;;;;;8.48;5.97;;;11.10;99.90;;;;;;5000254;28;20069;-73
2022/10/01 04:37:12;;;;;;;8.73;6.00;;;11.20;99.90;;;;;;5001273;28;20081;-71
2022/10/01 04:39:38;;;;;;;7.25;5.85;;;11.20;99.90;;;;;;4993506;28;20650;-76
2022/10/01 04:42:04;;;;;;;7.03;5.40;;;11.20;99.90;;;;;;4999853;28;20364;-73
2022/10/01 04:44:30;;;;;;;7.70;5.97;;;11.20;99.90;;;;;;4999742;28;20069;-73
2022/10/01 04:46:55;;;;;;;7.35;6.13;;;11.10;99.90;;;;;;4993226;28;20081;-74
2022/10/01 04:49:21;;;;;;;7.75;6.38;;;11.10;99.90;;;;;;5011796;28;20049;-74
2022/10/01 04:51:47;;;;;;;7.22;5.45;;;11.20;99.90;;;;;;5011569;28;20473;-74
2022/10/01 04:54:13;;;;;;;8.27;6.55;;;11.20;99.90;;;;;;4995090;28;20033;-75
2022/10/01 04:56:38;;;;;;;7.03;5.25;;;11.20;99.90;;;;;;5012334;28;20132;-71
2022/10/01 04:59:04;;;;;;;8.32;6.75;;;11.20;99.90;;;;;;4994827;28;20049;-74
2022/10/01 05:01:31;;;;;;;8.77;6.35;;;11.20;99.90;;;;;;4992296;28;20105;-75
2022/10/01 05:03:57;;;;;;;7.00;5.47;;;11.20;99.90;;;;;;5010748;28;20069;-76
2022/10/01 05:06:23;;;;;;;8.65;6.47;;;11.20;99.90;;;;;;5011705;28;20050;-75
2022/10/01 05:08:50;;;;;;;7.05;5.75;;;11.20;99.90;;;;;;5010532;28;20061;-76
2022/10/01 05:11:17;;;;;;;8.43;5.88;;;11.20;99.90;;;;;;5007123;28;20048;-76
2022/10/01 05:13:43;;;;;;;7.85;5.80;;;11.20;99.90;;;;;;5010873;28;20060;-78
2022/10/01 05:16:08;;;;;;;7.10;5.32;;;11.20;99.90;;;;;;5014113;28;20050;-74
2022/10/01 05:18:34;;;;;;;7.63;5.60;;;11.20;99.90;;;;;;5029608;28;20072;-75
2022/10/01 05:21:04;;;;;;;8.18;6.03;;;11.20;99.90;;;;;;5031439;28;20042;-76
2022/10/01 05:23:30;;;;;;;7.07;5.68;;;11.30;99.90;;;;;;5029862;28;20044;-76
2022/10/01 05:25:56;;;;;;;7.20;5.32;;;11.30;99.90;;;;;;5029789;28;20046;-76
2022/10/01 05:28:21;;;;;;;7.55;5.75;;;11.30;99.90;;;;;;5030448;28;20067;-75
2022/10/01 05:30:47;;;;;;;7.18;5.57;;;11.30;99.90;;;;;;5029765;28;20112;-76
2022/10/01 05:33:12;;;;;;;7.20;4.82;;;11.40;99.90;;;;;;5019707;28;20052;-77
2022/10/01 05:35:40;;;;;;;6.70;5.50;;;11.30;99.90;;;;;;4997678;28;20460;-76
2022/10/01 05:38:05;;;;;;;6.65;5.18;;;11.40;99.90;;;;;;5029520;28;20045;-78
2022/10/01 05:40:32;;;;;;;8.80;5.80;;;11.40;99.90;;;;;;5029495;28;20080;-76
2022/10/01 05:42:58;;;;;;;7.38;5.50;;;11.40;99.90;;;;;;5029391;28;20116;-75
2022/10/01 05:45:27;;;;;;;7.57;5.70;;;11.40;99.90;;;;;;5029675;28;20377;-77
2022/10/01 05:48:00;;;;;;;7.32;5.32;;;11.50;99.90;;;;;;5030373;28;20111;-75
2022/10/01 05:50:30;;;;;;;7.43;5.72;;;11.50;99.90;;;;;;5030178;28;20041;-73
2022/10/01 05:52:56;;;;;;;7.05;5.35;;;11.50;99.90;;;;;;5029366;28;20610;-73
2022/10/01 05:55:22;;;;;;;6.88;5.75;;;11.50;99.90;;;;;;5018974;28;20053;-76
2022/10/01 05:58:06;;;;;;;7.30;6.07;;;11.60;99.90;;;;;;5029567;28;20064;-75
2022/10/01 06:00:33;;;;;;;8.32;6.97;;;11.60;99.90;;;;;;5027336;28;20049;-74
2022/10/01 06:03:00;;;;;;;9.35;7.47;;;11.60;99.90;;;;;;5027448;28;20048;-75
2022/10/01 06:05:27;;;;;;;7.88;7.03;;;11.60;99.90;;;;;;5030999;28;20509;-75
2022/10/01 06:07:53;;;;;;;9.13;7.32;;;11.60;99.90;;;;;;5027095;28;20377;-76
2022/10/01 06:10:20;;;;;;;8.18;6.95;;;11.60;99.90;;;;;;5029767;28;20045;-76
2022/10/01 06:12:47;;;;;;;8.98;7.03;;;11.60;99.90;;;;;;5029045;28;20362;-76
2022/10/01 06:15:14;;;;;;;9.02;7.53;;;11.70;99.90;;;;;;5042281;28;20053;-76
2022/10/01 06:17:43;;;;;;;8.85;7.25;;;11.70;99.90;;;;;;5028306;28;20062;-74
2022/10/01 06:20:18;;;;;;;10.65;8.70;;;11.70;99.90;;;;;;5029815;28;20115;-76
2022/10/01 06:22:44;;;;;;;8.45;7.47;;;11.70;99.90;;;;;;5027365;28;20132;-74
2022/10/01 06:25:14;;;;;;;11.95;8.80;;;11.80;99.90;;;;;;5014402;28;20043;-77
2022/10/01 06:27:40;;;;;;;9.85;8.15;;;11.80;99.90;;;;;;4996340;28;20056;-75
2022/10/01 06:30:07;;;;;;;8.75;7.82;;;11.80;99.90;;;;;;5020094;28;20050;-73
2022/10/01 06:32:33;;;;;;;9.05;7.75;;;11.90;99.90;;;;;;5008334;28;20096;-77
2022/10/01 06:34:58;;;;;;;10.63;9.50;;;11.90;99.90;;;;;;5021320;28;20073;-73
2022/10/01 06:37:24;;;;;;;10.27;8.25;;;12.00;99.90;;;;;;5024440;28;20045;-76
2022/10/01 06:39:50;;;;;;;9.10;8.13;;;12.00;99.90;;;;;;5019898;28;20041;-74
2022/10/01 06:42:16;;;;;;;10.73;9.60;;;12.00;99.90;;;;;;5023765;28;20119;-75
2022/10/01 06:44:41;;;;;;;11.75;8.82;;;12.00;99.90;;;;;;5012662;28;20084;-75
2022/10/01 06:47:08;;;;;;;11.25;9.32;;;12.10;99.90;;;;;;5023869;28;20046;-75
2022/10/01 06:49:33;;;;;;;13.05;10.20;;;12.10;99.90;;;;;;5021407;28;20045;-75
2022/10/01 06:54:44;;;;;;;11.80;9.07;;;12.20;99.90;;;;;;5030337;28;20045;-75
2022/10/01 06:57:10;;;;;;;10.90;8.80;;;11.60;99.90;;;;;;5028430;28;20045;-75
2022/10/01 06:59:36;;;;;;;14.20;11.68;;;12.30;99.90;;;;;;5028195;28;20049;-75
2022/10/01 07:02:03;;;;;;;11.32;8.57;;;12.40;99.90;;;;;;5028804;28;20261;-76
2022/10/01 07:04:28;;;;;;;13.07;9.45;;;12.40;99.90;;;;;;5028916;28;20061;-73
2022/10/01 07:06:55;;;;;;;12.88;10.30;;;12.40;99.90;;;;;;5029991;28;20127;-74
2022/10/01 07:09:24;;;;;;;12.55;10.02;;;12.40;99.90;;;;;;5025607;28;20517;-76
2022/10/01 07:11:51;;;;;;;11.48;10.20;;;12.50;99.90;;;;;;5027499;28;20077;-75
2022/10/01 07:14:19;;;;;;;13.68;11.02;;;12.60;99.90;;;;;;5024531;28;20053;-74
2022/10/01 07:16:44;;;;;;;11.88;9.40;;;12.60;99.90;;;;;;5016370;28;20457;-74
2022/10/01 07:19:10;;;;;;;13.15;10.73;;;12.70;99.90;;;;;;5009099;28;20784;-76
2022/10/01 07:21:36;;;;;;;12.48;10.75;;;12.70;99.90;;;;;;5017994;28;20359;-75
2022/10/01 07:24:02;;;;;;;14.15;9.43;;;12.90;99.90;;;;;;5014424;28;20049;-75
2022/10/01 07:26:28;;;;;;;13.65;11.10;;;12.80;99.90;;;;;;5018006;28;20041;-75
2022/10/01 07:28:54;;;;;;;16.60;13.15;;;12.80;99.90;;;;;;5019187;28;20116;-76
2022/10/01 07:31:20;;;;;;;13.48;11.10;;;12.90;99.90;;;;;;4992375;28;20091;-76
2022/10/01 07:33:47;;;;;;;13.10;9.40;;;12.90;99.90;;;;;;5005807;28;20116;-79
2022/10/01 07:36:13;;;;;;;16.48;11.75;;;12.90;99.90;;;;;;5024582;28;20045;-78
2022/10/01 07:38:39;;;;;;;14.43;10.38;;;13.00;99.90;;;;;;5020049;28;20462;-72
2022/10/01 07:41:04;;;;;;;15.75;10.30;;;13.00;99.90;;;;;;5019614;28;20128;-74
2022/10/01 07:43:31;;;;;;;13.38;10.23;;;13.10;99.90;;;;;;5023158;28;20434;-75
2022/10/01 07:45:58;;;;;;;15.00;10.38;;;13.00;99.90;;;;;;5029687;28;20087;-76
2022/10/01 07:48:25;;;;;;;13.30;10.02;;;13.00;99.90;;;;;;5018077;28;20697;-78
2022/10/01 07:50:51;;;;;;;15.20;13.35;;;13.00;99.90;;;;;;5028916;28;20060;-74
2022/10/01 07:53:18;;;;;;;16.48;11.77;;;13.10;99.90;;;;;;5019624;28;20125;-74
2022/10/01 07:55:44;;;;;;;15.90;11.40;;;13.20;99.90;;;;;;5020573;28;20056;-73
2022/10/01 07:58:13;;;;;;;12.43;9.13;;;13.30;99.90;;;;;;5016835;28;20049;-74
2022/10/01 08:00:39;;;;;;;16.02;9.30;;;13.60;99.90;;;;;;5027272;28;20042;-73
2022/10/01 08:03:05;;;;;;;13.85;9.10;;;13.40;99.90;;;;;;5027768;28;20056;-75
2022/10/01 08:05:33;;;;;;;12.82;8.70;;;13.50;99.90;;;;;;5024511;28;20381;-75
2022/10/01 08:08:05;;;;;;;13.88;9.07;;;13.50;99.90;;;;;;5011321;28;20085;-76
2022/10/01 08:10:35;;;;;;;15.60;8.75;;;13.60;99.90;;;;;;5037101;28;20042;-76
2022/10/01 08:13:15;;;;;;;16.45;8.10;;;13.70;99.90;;;;;;5029831;28;20060;-77
2022/10/01 08:15:46;;;;;;;13.38;6.97;;;13.90;99.90;;;;;;5028389;28;20041;-79
2022/10/01 08:18:12;;;;;;;14.65;6.53;;;14.00;99.90;;;;;;5029239;28;20041;-74
2022/10/01 08:20:38;;;;;;;11.25;5.43;;;14.10;99.90;;;;;;5041193;28;20546;-76
2022/10/01 08:23:10;;;;;;;13.57;5.70;;;14.20;99.90;;;;;;5034601;28;20036;-75
2022/10/01 08:25:36;;;;;;;15.07;5.47;;;14.10;99.90;;;;;;5018645;28;20139;-75
2022/10/01 08:28:03;;;;;;;14.90;5.70;;;14.20;99.90;;;;;;5034066;28;20053;-75
2022/10/01 08:30:29;;;;;;;12.85;5.28;;;14.20;99.90;;;;;;5033831;28;20049;-76
2022/10/01 08:32:55;;;;;;;12.90;5.10;;;14.20;99.90;;;;;;5026525;28;20178;-76
2022/10/01 08:35:23;;;;;;;13.27;6.03;;;14.30;99.90;;;;;;5042310;28;20053;-77
2022/10/01 08:37:48;;;;;;;13.88;5.60;;;14.50;99.90;;;;;;5050341;28;20059;-78
2022/10/01 08:40:15;;;;;;;11.73;5.07;;;14.60;99.90;;;;;;5034499;28;20049;-76
2022/10/01 08:42:58;;;;;;;15.77;5.82;;;14.70;99.90;;;;;;5051684;28;20044;-78
2022/10/01 08:45:50;;;;;;;13.63;6.43;;;14.80;99.90;;;;;;5024282;28;20606;-76
2022/10/01 08:48:34;;;;;;;11.85;5.95;;;14.90;99.90;;;;;;5032101;28;20051;-77
2022/10/01 08:51:06;;;;;;;12.55;5.05;;;15.00;99.90;;;;;;5034618;28;20053;-77
2022/10/01 08:53:53;;;;;;;12.18;5.35;;;15.20;99.90;;;;;;5030504;28;20116;-82
2022/10/01 08:56:32;;;;;;;12.82;6.95;;;15.20;99.90;;;;;;5039386;28;20070;-81
2022/10/01 08:59:04;;;;;;;13.02;6.90;;;15.30;99.90;;;;;;5021887;28;20508;-79
2022/10/01 09:01:30;;;;;;;12.65;4.50;;;15.50;99.90;;;;;;5030062;28;20535;-79
2022/10/01 09:03:57;;;;;;;13.25;4.00;;;15.70;99.90;;;;;;5051481;28;20511;-76
2022/10/01 09:06:25;;;;;;;12.00;4.00;;;15.90;99.90;;;;;;5050138;28;20509;-77
2022/10/01 09:09:01;;;;;;;11.60;3.42;;;16.00;99.90;;;;;;5032996;28;20512;-74
2022/10/01 09:11:47;;;;;;;11.07;3.22;;;16.10;99.90;;;;;;5051162;28;20092;-72
2022/10/01 09:14:45;;;;;;;12.50;2.60;;;16.30;99.90;;;;;;5034010;28;20098;-74
2022/10/01 09:17:28;;;;;;;10.10;2.58;;;16.30;99.90;;;;;;5015683;28;20045;-75
2022/10/01 09:20:10;;;;;;;12.77;2.78;;;16.40;99.90;;;;;;5041861;28;20061;-74
2022/10/01 09:22:49;;;;;;;10.75;2.80;;;16.50;99.90;;;;;;5040268;28;20041;-74
2022/10/01 09:25:26;;;;;;;9.70;2.40;;;16.70;99.90;;;;;;5031007;28;20176;-74
2022/10/01 09:28:14;;;;;;;9.85;2.40;;;16.70;99.90;;;;;;5031990;28;20041;-71
2022/10/01 09:31:12;;;;;;;9.95;2.47;;;16.70;99.90;;;;;;5051032;28;20053;-72
2022/10/01 09:33:47;;;;;;;9.38;2.22;;;16.50;99.90;;;;;;5042979;28;20045;-72
2022/10/01 09:36:37;;;;;;;12.02;2.50;;;16.30;99.90;;;;;;5033355;28;20124;-72
2022/10/01 09:39:25;;;;;;;9.20;2.17;;;16.20;99.90;;;;;;5029884;28;20104;-73
2022/10/01 09:41:51;;;;;;;10.73;2.05;;;16.30;99.90;;;;;;5032036;28;20541;-71
2022/10/01 09:44:36;;;;;;;9.95;1.98;;;16.20;99.90;;;;;;5028279;28;20037;-72
2022/10/01 09:47:02;;;;;;;7.78;2.03;;;16.20;99.90;;;;;;5036846;28;20041;-72
2022/10/01 09:49:45;;;;;;;8.65;1.98;;;16.20;99.90;;;;;;5029982;28;20055;-77
2022/10/01 09:52:36;;;;;;;9.60;2.10;;;16.20;99.90;;;;;;5029825;28;20102;-73
2022/10/01 09:55:22;;;;;;;8.20;1.88;;;16.40;99.90;;;;;;5030651;28;20251;-73
2022/10/01 09:58:08;;;;;;;6.80;1.90;;;16.60;99.90;;;;;;5038640;28;20047;-72
2022/10/01 10:00:36;;;;;;;9.65;1.88;;;16.90;99.90;;;;;;5034967;28;20052;-72
2022/10/01 10:03:02;;;;;;;8.07;1.80;;;17.10;99.90;;;;;;5027727;28;20384;-73
2022/10/01 10:05:37;;;;;;;6.32;1.50;;;17.40;99.90;;;;;;5029657;28;20102;-75
2022/10/01 10:08:11;;;;;;;9.70;1.70;;;17.50;99.90;;;;;;5049074;28;20480;-76
2022/10/01 10:10:39;;;;;;;7.82;1.65;;;17.50;99.90;;;;;;5033166;28;20487;-73
2022/10/01 10:13:30;;;;;;;8.32;1.55;;;17.30;99.90;;;;;;5032889;28;20400;-71
2022/10/01 10:15:57;;;;;;;7.13;1.48;;;17.10;99.90;;;;;;5049776;28;20392;-72
2022/10/01 10:18:27;;;;;;;6.35;1.70;;;16.90;99.90;;;;;;5034431;28;20057;-72
2022/10/01 10:20:55;;;;;;;6.47;1.35;;;16.70;99.90;;;;;;5038402;28;20077;-75
2022/10/01 10:23:25;;;;;;;6.97;1.70;;;16.50;99.90;;;;;;5004227;28;20070;-73
2022/10/01 10:26:01;;;;;;;6.28;1.60;;;16.20;99.90;;;;;;5029268;28;20076;-73
2022/10/01 10:28:44;;;;;;;8.60;1.77;;;16.00;99.90;;;;;;5023723;28;20076;-76
2022/10/01 10:31:24;;;;;;;7.20;1.67;;;15.80;99.90;;;;;;5022580;28;20045;-77
2022/10/01 10:33:51;;;;;;;8.50;1.60;;;15.60;99.90;;;;;;5022103;28;20048;-74
2022/10/01 10:36:18;;;;;;;7.30;1.60;;;15.50;99.90;;;;;;5039306;28;20457;-74
2022/10/01 10:38:49;;;;;;;7.72;1.77;;;15.50;99.90;;;;;;5040060;28;20098;-78
2022/10/01 10:41:25;;;;;;;8.48;1.92;;;15.60;99.90;;;;;;5031037;28;20099;-74
2022/10/01 10:44:03;;;;;;;5.95;1.40;;;15.90;99.90;;;;;;5024212;28;20075;-74
2022/10/01 10:46:34;;;;;;;6.78;1.60;;;16.00;99.90;;;;;;5027242;28;20048;-73
2022/10/01 10:49:20;;;;;;;7.50;1.60;;;16.20;99.90;;;;;;5029860;28;20036;-75
2022/10/01 10:51:52;;;;;;;6.97;1.40;;;16.40;99.90;;;;;;5034560;28;20045;-74
2022/10/01 10:54:40;;;;;;;5.60;1.35;;;16.40;99.90;;;;;;5037694;28;20041;-75
2022/10/01 10:57:38;;;;;;;6.80;1.40;;;16.40;99.90;;;;;;5029756;28;20053;-74
2022/10/01 11:00:14;;;;;;;6.68;1.35;;;16.30;99.90;;;;;;4988994;28;20053;-76
2022/10/01 11:02:50;;;;;;;8.45;1.70;;;16.00;99.90;;;;;;5041780;28;20048;-79
2022/10/01 11:05:22;;;;;;;6.82;1.70;;;15.90;99.90;;;;;;5041984;28;20067;-83
2022/10/01 11:07:52;;;;;;;7.40;1.58;;;15.60;99.90;;;;;;5016108;28;20475;-77
2022/10/01 11:10:30;;;;;;;8.05;1.95;;;15.30;99.90;;;;;;5030277;28;20052;-71
2022/10/01 11:13:05;;;;;;;6.43;1.17;;;15.10;99.90;;;;;;5028327;28;20405;-75
2022/10/01 11:15:43;;;;;;;4.30;0.90;;;14.90;99.90;;;;;;5010386;28;20087;-73
2022/10/01 11:18:35;;;;;;;3.97;1.00;;;14.50;99.90;;;;;;5045485;28;20492;-74
2022/10/01 11:21:33;;;;;;;5.30;1.00;;;14.20;99.90;;;;;;5048079;28;20172;-73
2022/10/01 11:24:37;;;;;;;4.22;0.98;;;14.00;99.90;;;;;;5033590;28;20045;-72
2022/10/01 11:27:35;;;;;;;5.43;1.10;;;13.90;99.90;;;;;;5015691;28;20076;-71
2022/10/01 11:30:18;;;;;;;6.43;1.08;;;13.70;99.90;;;;;;5033978;28;20037;-74
2022/10/01 11:33:33;;;;;;;4.88;0.90;;;13.70;99.90;;;;;;5032481;28;20051;-75
2022/10/01 11:36:24;;;;;;;4.13;1.00;;;13.70;99.90;;;;;;5023429;28;20144;-74
2022/10/01 11:39:02;;;;;;;4.07;0.88;;;13.70;99.90;;;;;;5033670;28;21379;-71
2022/10/01 11:41:42;;;;;;;10.02;1.33;;;13.70;99.90;;;;;;5033897;28;20045;-73
2022/10/01 11:44:29;;;;;;;4.80;1.20;;;13.90;99.90;;;;;;5014425;28;20050;-73
2022/10/01 11:47:00;;;;;;;4.70;1.20;;;13.90;99.90;;;;;;5029160;28;20069;-75
2022/10/01 11:49:44;;;;;;;6.15;1.30;;;14.00;99.90;;;;;;5032613;28;20121;-74
2022/10/01 11:52:36;;;;;;;6.72;1.50;;;14.10;99.90;;;;;;5034574;28;20045;-78
2022/10/01 12:01:08;;;;;;;8.18;1.65;;;14.60;99.90;;;;;;5033099;28;20468;-81
2022/10/01 12:03:57;;;;;;;7.60;1.77;;;14.70;99.90;;;;;;5033067;28;20037;-79
2022/10/01 12:06:31;;;;;;;8.25;1.88;;;14.80;99.90;;;;;;4965000;28;20111;-78
2022/10/01 12:09:06;;;;;;;8.70;1.95;;;14.80;99.90;;;;;;5039947;28;20041;-79
2022/10/01 12:12:01;;;;;;;9.82;2.00;;;14.90;99.90;;;;;;5033352;28;20052;-78
2022/10/01 12:14:47;;;;;;;8.52;1.67;;;15.10;99.90;;;;;;5041709;28;20440;-81
2022/10/01 12:17:27;;;;;;;9.10;2.13;;;15.20;99.90;;;;;;5029652;28;20049;-80
2022/10/01 12:19:58;;;;;;;11.13;2.10;;;15.40;99.90;;;;;;5033358;28;20052;-82
2022/10/01 12:22:29;;;;;;;10.05;2.25;;;15.50;99.90;;;;;;5033024;28;20119;-82
2022/10/01 12:24:55;;;;;;;9.88;1.90;;;15.60;99.90;;;;;;5033402;28;20041;-82
2022/10/01 12:27:28;;;;;;;10.40;2.20;;;15.70;99.90;;;;;;5031654;28;20047;-77
2022/10/01 12:30:11;;;;;;;9.52;2.30;;;15.80;99.90;;;;;;5035720;28;20056;-79
2022/10/01 12:32:55;;;;;;;11.13;2.42;;;15.90;99.90;;;;;;5050649;28;20044;-80
2022/10/01 12:35:34;;;;;;;9.85;2.05;;;16.00;99.90;;;;;;5032221;28;20076;-74
2022/10/01 12:38:27;;;;;;;13.30;2.20;;;16.00;99.90;;;;;;5031817;28;20501;-83
2022/10/01 12:41:08;;;;;;;11.35;2.15;;;16.00;99.90;;;;;;5050932;28;20475;-79
2022/10/01 12:43:52;;;;;;;11.73;2.08;;;15.90;99.90;;;;;;5052131;28;20041;-77
2022/10/01 12:46:42;;;;;;;12.30;2.33;;;15.80;99.90;;;;;;5048920;28;20049;-81
2022/10/01 12:49:21;;;;;;;11.30;2.42;;;15.70;99.90;;;;;;5045330;28;20416;-81
2022/10/01 12:51:58;;;;;;;11.13;2.30;;;15.60;99.90;;;;;;5051676;28;20049;-80
2022/10/01 12:54:52;;;;;;;12.27;2.65;;;15.50;99.90;;;;;;5028821;28;20048;-80
2022/10/01 12:57:43;;;;;;;10.20;2.58;;;15.40;99.90;;;;;;5032917;28;20045;-80
2022/10/01 13:00:21;;;;;;;9.07;2.28;;;15.30;99.90;;;;;;5029665;28;20484;-82
2022/10/01 13:03:27;;;;;;;13.70;2.63;;;15.40;99.90;;;;;;5050752;28;20037;-82
2022/10/01 13:06:22;;;;;;;12.98;2.30;;;15.50;99.90;;;;;;5032456;28;20076;-79
2022/10/01 13:08:53;;;;;;;8.52;2.13;;;15.70;99.90;;;;;;5051237;28;20103;-80
2022/10/01 13:11:22;;;;;;;11.15;2.40;;;15.80;99.90;;;;;;5051107;28;20121;-78
2022/10/01 13:13:50;;;;;;;11.18;2.05;;;15.80;99.90;;;;;;5051990;28;20037;-79
2022/10/01 13:16:27;;;;;;;12.10;2.28;;;15.80;99.90;;;;;;5029628;28;20044;-79
2022/10/01 13:19:03;;;;;;;12.85;2.70;;;15.90;99.90;;;;;;5034518;28;21514;-79